sensor_id;sensor_type;location;lat;lon;timestamp;temperature;humidity
67165;SHT31;54093;50.014;19.984;2023-12-04T00:08:44;-3.56;80.44
67165;SHT31;54093;50.014;19.984;2023-12-04T00:18:08;-3.52;80.56
67165;SHT31;54093;50.014;19.984;2023-12-04T00:27:38;-3.56;80.84
67165;SHT31;54093;50.014;19.984;2023-12-04T00:37:00;-3.52;80.39
67165;SHT31;54093;50.014;19.984;2023-12-04T00:46:21;-3.55;80.82
67165;SHT31;54093;50.014;19.984;2023-12-04T00:55:45;-3.55;80.66
67165;SHT31;54093;50.014;19.984;2023-12-04T01:05:13;-3.52;80.78
67165;SHT31;54093;50.014;19.984;2023-12-04T01:14:35;-3.59;80.67
67165;SHT31;54093;50.014;19.984;2023-12-04T01:24:01;-3.59;80.96
67165;SHT31;54093;50.014;19.984;2023-12-04T01:33:22;-3.66;80.89
67165;SHT31;54093;50.014;19.984;2023-12-04T01:42:43;-3.73;80.95
67165;SHT31;54093;50.014;19.984;2023-12-04T01:52:05;-3.89;80.67
67165;SHT31;54093;50.014;19.984;2023-12-04T02:01:27;-4.03;80.88
67165;SHT31;54093;50.014;19.984;2023-12-04T02:10:51;-4.04;80.88
67165;SHT31;54093;50.014;19.984;2023-12-04T02:20:31;-4.09;81.20
67165;SHT31;54093;50.014;19.984;2023-12-04T02:30:14;-4.02;81.20
67165;SHT31;54093;50.014;19.984;2023-12-04T02:39:38;-3.97;81.81
67165;SHT31;54093;50.014;19.984;2023-12-04T02:49:00;-3.94;82.43
67165;SHT31;54093;50.014;19.984;2023-12-04T02:58:23;-3.79;82.84
67165;SHT31;54093;50.014;19.984;2023-12-04T03:07:48;-3.82;83.12
67165;SHT31;54093;50.014;19.984;2023-12-04T03:17:09;-3.68;83.80
67165;SHT31;54093;50.014;19.984;2023-12-04T03:26:31;-3.65;83.40
67165;SHT31;54093;50.014;19.984;2023-12-04T03:35:59;-3.66;83.39
67165;SHT31;54093;50.014;19.984;2023-12-04T03:45:23;-3.66;82.86
67165;SHT31;54093;50.014;19.984;2023-12-04T03:54:45;-3.75;82.99
67165;SHT31;54093;50.014;19.984;2023-12-04T04:04:09;-3.71;83.21
67165;SHT31;54093;50.014;19.984;2023-12-04T04:13:30;-3.78;82.94
67165;SHT31;54093;50.014;19.984;2023-12-04T04:22:52;-3.78;83.32
67165;SHT31;54093;50.014;19.984;2023-12-04T04:32:15;-3.78;83.45
67165;SHT31;54093;50.014;19.984;2023-12-04T04:41:36;-3.82;83.02
67165;SHT31;54093;50.014;19.984;2023-12-04T04:50:57;-3.85;83.10
67165;SHT31;54093;50.014;19.984;2023-12-04T05:00:18;-3.89;82.86
67165;SHT31;54093;50.014;19.984;2023-12-04T05:09:40;-3.90;82.80
67165;SHT31;54093;50.014;19.984;2023-12-04T05:19:01;-3.89;82.90
67165;SHT31;54093;50.014;19.984;2023-12-04T05:28:22;-3.89;82.70
67165;SHT31;54093;50.014;19.984;2023-12-04T05:37:43;-3.82;82.45
67165;SHT31;54093;50.014;19.984;2023-12-04T05:47:04;-3.82;82.78
67165;SHT31;54093;50.014;19.984;2023-12-04T05:56:25;-3.72;82.51
67165;SHT31;54093;50.014;19.984;2023-12-04T06:05:47;-3.68;82.50
67165;SHT31;54093;50.014;19.984;2023-12-04T06:15:09;-3.69;82.32
67165;SHT31;54093;50.014;19.984;2023-12-04T06:24:30;-3.62;82.59
67165;SHT31;54093;50.014;19.984;2023-12-04T06:33:51;-3.65;82.55
67165;SHT31;54093;50.014;19.984;2023-12-04T06:43:13;-3.58;82.62
67165;SHT31;54093;50.014;19.984;2023-12-04T06:52:36;-3.55;82.30
67165;SHT31;54093;50.014;19.984;2023-12-04T07:01:57;-3.52;82.45
67165;SHT31;54093;50.014;19.984;2023-12-04T07:11:18;-3.48;81.76
67165;SHT31;54093;50.014;19.984;2023-12-04T07:20:40;-3.44;81.49
67165;SHT31;54093;50.014;19.984;2023-12-04T07:30:02;-3.37;81.10
67165;SHT31;54093;50.014;19.984;2023-12-04T07:39:23;-3.28;80.47
67165;SHT31;54093;50.014;19.984;2023-12-04T07:48:45;-3.20;79.95
67165;SHT31;54093;50.014;19.984;2023-12-04T07:58:07;-3.11;80.11
67165;SHT31;54093;50.014;19.984;2023-12-04T08:07:31;-3.00;79.54
67165;SHT31;54093;50.014;19.984;2023-12-04T08:16:52;-2.89;78.75
67165;SHT31;54093;50.014;19.984;2023-12-04T08:26:13;-2.73;78.02
67165;SHT31;54093;50.014;19.984;2023-12-04T08:35:36;-2.65;76.59
67165;SHT31;54093;50.014;19.984;2023-12-04T08:44:57;-2.58;76.22
67165;SHT31;54093;50.014;19.984;2023-12-04T08:54:18;-2.52;76.06
67165;SHT31;54093;50.014;19.984;2023-12-04T09:03:39;-2.46;75.63
67165;SHT31;54093;50.014;19.984;2023-12-04T09:13:00;-2.33;74.35
67165;SHT31;54093;50.014;19.984;2023-12-04T09:22:21;-2.30;74.47
67165;SHT31;54093;50.014;19.984;2023-12-04T09:31:42;-2.21;73.40
67165;SHT31;54093;50.014;19.984;2023-12-04T09:41:06;-2.17;73.51
67165;SHT31;54093;50.014;19.984;2023-12-04T09:50:34;-2.15;73.82
67165;SHT31;54093;50.014;19.984;2023-12-04T09:59:56;-2.10;73.16
67165;SHT31;54093;50.014;19.984;2023-12-04T10:09:19;-2.04;73.50
67165;SHT31;54093;50.014;19.984;2023-12-04T10:18:40;-2.04;73.56
67165;SHT31;54093;50.014;19.984;2023-12-04T10:28:09;-1.96;71.85
67165;SHT31;54093;50.014;19.984;2023-12-04T10:37:31;-1.94;72.40
67165;SHT31;54093;50.014;19.984;2023-12-04T10:46:55;-1.87;71.77
67165;SHT31;54093;50.014;19.984;2023-12-04T10:56:36;-1.85;71.59
67165;SHT31;54093;50.014;19.984;2023-12-04T11:06:01;-1.76;70.71
67165;SHT31;54093;50.014;19.984;2023-12-04T11:15:26;-1.76;70.93
67165;SHT31;54093;50.014;19.984;2023-12-04T11:24:49;-1.62;70.21
67165;SHT31;54093;50.014;19.984;2023-12-04T11:34:10;-1.58;70.32
67165;SHT31;54093;50.014;19.984;2023-12-04T11:43:32;-1.56;69.18
67165;SHT31;54093;50.014;19.984;2023-12-04T11:52:54;-1.54;69.45
67165;SHT31;54093;50.014;19.984;2023-12-04T12:02:15;-1.44;69.79
67165;SHT31;54093;50.014;19.984;2023-12-04T12:11:37;-1.44;69.21
67165;SHT31;54093;50.014;19.984;2023-12-04T12:20:58;-1.27;68.94
67165;SHT31;54093;50.014;19.984;2023-12-04T12:30:19;-1.15;68.23
67165;SHT31;54093;50.014;19.984;2023-12-04T12:39:40;-1.01;68.39
67165;SHT31;54093;50.014;19.984;2023-12-04T12:49:02;-0.76;68.09
67165;SHT31;54093;50.014;19.984;2023-12-04T12:58:25;-0.19;68.92
67165;SHT31;54093;50.014;19.984;2023-12-04T13:07:46;0.40;68.72
67165;SHT31;54093;50.014;19.984;2023-12-04T13:17:40;0.53;63.57
67165;SHT31;54093;50.014;19.984;2023-12-04T13:27:01;-0.12;65.52
67165;SHT31;54093;50.014;19.984;2023-12-04T13:47:00;-0.96;71.31
67165;SHT31;54093;50.014;19.984;2023-12-04T13:56:22;-1.12;71.64
67165;SHT31;54093;50.014;19.984;2023-12-04T14:06:02;-1.30;72.70
67165;SHT31;54093;50.014;19.984;2023-12-04T14:15:24;-1.45;73.51
67165;SHT31;54093;50.014;19.984;2023-12-04T14:24:45;-1.60;73.03
67165;SHT31;54093;50.014;19.984;2023-12-04T14:34:06;-1.63;75.65
67165;SHT31;54093;50.014;19.984;2023-12-04T14:43:27;-1.93;73.14
67165;SHT31;54093;50.014;19.984;2023-12-04T14:52:48;-2.21;73.55
67165;SHT31;54093;50.014;19.984;2023-12-04T15:02:11;-2.45;73.97
67165;SHT31;54093;50.014;19.984;2023-12-04T15:11:51;-2.55;74.81
67165;SHT31;54093;50.014;19.984;2023-12-04T15:21:35;-2.73;75.17
67165;SHT31;54093;50.014;19.984;2023-12-04T15:30:56;-2.82;76.00
67165;SHT31;54093;50.014;19.984;2023-12-04T15:40:17;-2.79;76.53
67165;SHT31;54093;50.014;19.984;2023-12-04T15:49:38;-2.83;76.55
67165;SHT31;54093;50.014;19.984;2023-12-04T15:58:59;-2.83;77.45
67165;SHT31;54093;50.014;19.984;2023-12-04T16:08:20;-3.07;75.12
67165;SHT31;54093;50.014;19.984;2023-12-04T16:17:41;-3.18;75.10
67165;SHT31;54093;50.014;19.984;2023-12-04T16:27:02;-3.33;76.12
67165;SHT31;54093;50.014;19.984;2023-12-04T16:36:24;-3.34;77.30
67165;SHT31;54093;50.014;19.984;2023-12-04T16:45:45;-3.30;77.36
67165;SHT31;54093;50.014;19.984;2023-12-04T16:55:07;-3.34;77.81
67165;SHT31;54093;50.014;19.984;2023-12-04T17:04:28;-3.27;78.84
67165;SHT31;54093;50.014;19.984;2023-12-04T17:13:50;-3.27;79.16
67165;SHT31;54093;50.014;19.984;2023-12-04T17:23:11;-3.34;79.14
67165;SHT31;54093;50.014;19.984;2023-12-04T17:32:32;-3.50;78.80
67165;SHT31;54093;50.014;19.984;2023-12-04T17:41:53;-3.42;79.54
67165;SHT31;54093;50.014;19.984;2023-12-04T17:51:15;-3.40;79.63
67165;SHT31;54093;50.014;19.984;2023-12-04T18:00:37;-3.42;79.42
67165;SHT31;54093;50.014;19.984;2023-12-04T18:10:02;-3.54;80.29
67165;SHT31;54093;50.014;19.984;2023-12-04T18:19:24;-3.52;80.11
67165;SHT31;54093;50.014;19.984;2023-12-04T18:28:45;-3.50;80.11
67165;SHT31;54093;50.014;19.984;2023-12-04T18:38:19;-3.40;81.15
67165;SHT31;54093;50.014;19.984;2023-12-04T18:47:52;-3.45;81.06
67165;SHT31;54093;50.014;19.984;2023-12-04T18:57:14;-3.41;81.24
67165;SHT31;54093;50.014;19.984;2023-12-04T19:06:35;-3.45;80.46
67165;SHT31;54093;50.014;19.984;2023-12-04T19:15:56;-3.56;80.11
67165;SHT31;54093;50.014;19.984;2023-12-04T19:25:17;-3.65;79.59
67165;SHT31;54093;50.014;19.984;2023-12-04T19:34:42;-3.59;80.66
67165;SHT31;54093;50.014;19.984;2023-12-04T19:44:03;-3.51;81.01
67165;SHT31;54093;50.014;19.984;2023-12-04T19:53:24;-3.63;80.45
67165;SHT31;54093;50.014;19.984;2023-12-04T20:02:45;-3.59;81.46
67165;SHT31;54093;50.014;19.984;2023-12-04T20:12:06;-3.54;81.42
67165;SHT31;54093;50.014;19.984;2023-12-04T20:21:27;-3.54;81.28
67165;SHT31;54093;50.014;19.984;2023-12-04T20:30:49;-3.59;81.16
67165;SHT31;54093;50.014;19.984;2023-12-04T20:40:11;-3.65;81.03
67165;SHT31;54093;50.014;19.984;2023-12-04T20:49:32;-3.62;81.26
67165;SHT31;54093;50.014;19.984;2023-12-04T20:58:53;-3.61;81.42
67165;SHT31;54093;50.014;19.984;2023-12-04T21:08:15;-3.78;80.25
67165;SHT31;54093;50.014;19.984;2023-12-04T21:17:36;-3.75;80.71
67165;SHT31;54093;50.014;19.984;2023-12-04T21:27:01;-3.76;81.89
67165;SHT31;54093;50.014;19.984;2023-12-04T21:36:22;-3.93;80.21
67165;SHT31;54093;50.014;19.984;2023-12-04T21:45:43;-3.89;81.87
67165;SHT31;54093;50.014;19.984;2023-12-04T21:55:05;-3.82;82.00
67165;SHT31;54093;50.014;19.984;2023-12-04T22:04:32;-4.03;80.76
67165;SHT31;54093;50.014;19.984;2023-12-04T22:13:56;-4.13;81.01
67165;SHT31;54093;50.014;19.984;2023-12-04T22:23:18;-4.06;81.86
67165;SHT31;54093;50.014;19.984;2023-12-04T22:32:39;-4.14;82.02
67165;SHT31;54093;50.014;19.984;2023-12-04T22:42:01;-4.07;82.01
67165;SHT31;54093;50.014;19.984;2023-12-04T22:51:22;-4.07;81.85
67165;SHT31;54093;50.014;19.984;2023-12-04T23:00:43;-4.06;82.44
67165;SHT31;54093;50.014;19.984;2023-12-04T23:10:04;-4.00;82.05
67165;SHT31;54093;50.014;19.984;2023-12-04T23:19:29;-4.15;81.83
67165;SHT31;54093;50.014;19.984;2023-12-04T23:28:50;-4.13;81.56
67165;SHT31;54093;50.014;19.984;2023-12-04T23:38:11;-4.31;81.42
67165;SHT31;54093;50.014;19.984;2023-12-04T23:47:32;-4.44;81.18
67165;SHT31;54093;50.014;19.984;2023-12-04T23:56:53;-4.35;83.09
